Todd, North Carolina
Current Conditions -  °F | °C
As of 4:35 PM on Friday 31 Oct 2014 (Local Time) from KTNB Reporting Station
Light Rain Light Rain  
Wind Chill: 34°   Ceiling: 2300
Heat Index: 41°   Visibility: 7mi
Dew Point: 38°   Wind: 13mph
Humidity: 86%   Direction: 300°WNW
Pressure: 29.82"   Gusts: 17mph
Location:  36.31°N, 81.6°W
Report Text: KTNB 312035Z AUTO 30011G15KT 7SM -RA SCT017 OVC023 05/03 A2982 RMK AO2 P0001 T00520031
Loading
Personal Weather Stations






























Interactive Weather Map
Tropical Storm Tracking
New forecast layout! Learn more

10-Day Weather Forecast

Advertisements
Track Severe Weather on mobile